Time;durP1;ratioP1;P1;durP2;ratioP2;P2;SDS_P1;SDS_P2;PMS_P1;PMS_P2;Temp;Humidity;BMP_temperature;BMP_pressure;BME280_temperature;BME280_humidity;BME280_pressure;Samples;Min_cycle;Max_cycle;Signal;HPM_P1;HPM_P2
2022/09/07 00:00:42;;;;;;;7.85;2.72;;;;;;;20.78;74.28;100672.94;5048406;28;20069;-75
2022/09/07 00:03:09;;;;;;;12.30;2.00;;;;;;;20.66;74.57;100655.88;5049692;28;20131;-76
2022/09/07 00:05:47;;;;;;;8.32;2.10;;;;;;;20.82;74.36;100671.09;5045452;28;20163;-75
2022/09/07 00:08:16;;;;;;;12.93;2.97;;;;;;;20.61;74.63;100653.22;5032179;28;20068;-76
2022/09/07 00:10:56;;;;;;;9.13;2.95;;;;;;;20.71;74.62;100667.81;5047012;28;20041;-75
2022/09/07 00:13:26;;;;;;;13.68;3.38;;;;;;;20.78;74.47;100668.09;5046235;28;20126;-76
2022/09/07 00:15:55;;;;;;;12.90;2.75;;;;;;;20.73;74.48;100641.94;5050358;28;20102;-76
2022/09/07 00:18:22;;;;;;;11.18;2.88;;;;;;;20.77;74.76;100640.91;5031365;28;20173;-76
2022/09/07 00:21:01;;;;;;;7.07;3.50;;;;;;;20.51;74.71;100621.28;5048390;28;20036;-76
2022/09/07 00:23:29;;;;;;;9.05;2.50;;;;;;;20.34;74.73;100599.50;5058593;28;20069;-74
2022/09/07 00:26:10;;;;;;;9.50;3.20;;;;;;;20.46;74.65;100607.25;5059940;28;20060;-76
2022/09/07 00:28:38;;;;;;;7.82;2.10;;;;;;;20.42;74.78;100597.78;5054846;28;20064;-75
2022/09/07 00:31:16;;;;;;;5.93;2.05;;;;;;;20.61;75.03;100617.16;5064378;28;20049;-76
2022/09/07 00:33:45;;;;;;;22.27;2.85;;;;;;;20.74;75.09;100635.09;5041875;28;20091;-76
2022/09/07 00:36:12;;;;;;;10.75;2.42;;;;;;;20.74;74.77;100644.44;5048004;28;20565;-76
2022/09/07 00:38:41;;;;;;;9.50;2.63;;;;;;;20.77;74.81;100635.22;5043624;28;20139;-75
2022/09/07 00:41:08;;;;;;;10.73;3.00;;;;;;;20.49;75.00;100608.56;5042978;28;20115;-76
2022/09/07 00:43:50;;;;;;;9.13;2.70;;;;;;;20.76;74.81;100649.78;5045941;28;20174;-76
2022/09/07 00:46:19;;;;;;;14.63;2.55;;;;;;;20.64;74.69;100621.31;5048012;28;20128;-76
2022/09/07 00:49:01;;;;;;;9.73;3.25;;;;;;;20.74;74.81;100640.75;5043518;28;20158;-75
2022/09/07 00:51:37;;;;;;;8.27;2.25;;;;;;;20.69;75.24;100632.47;5048159;28;20085;-76
2022/09/07 00:54:09;;;;;;;13.57;2.63;;;;;;;20.56;75.13;100606.03;5048479;28;20530;-76
2022/09/07 00:56:38;;;;;;;11.10;2.80;;;;;;;20.74;74.73;100629.41;5045097;28;20076;-76
2022/09/07 00:59:07;;;;;;;11.65;3.55;;;;;;;20.77;74.97;100643.72;5047490;28;20151;-75
2022/09/07 01:01:34;;;;;;;8.35;2.40;;;;;;;20.73;74.96;100639.94;5046762;28;20045;-76
2022/09/07 01:04:02;;;;;;;9.23;3.08;;;;;;;20.62;74.72;100615.19;5045803;28;20049;-75
2022/09/07 01:06:35;;;;;;;9.20;2.72;;;;;;;20.62;75.16;100620.84;5044849;28;20136;-75
2022/09/07 01:09:05;;;;;;;7.30;2.58;;;;;;;20.41;75.06;100587.63;5045159;28;20088;-75
2022/09/07 01:11:36;;;;;;;12.18;2.85;;;;;;;20.41;75.30;100598.97;5030692;28;20143;-74
2022/09/07 01:14:10;;;;;;;13.05;3.45;;;;;;;20.64;75.41;100627.81;5045339;28;20174;-75
2022/09/07 01:17:12;;;;;;;10.65;2.42;;;;;;;20.65;75.80;100628.66;5027623;28;20148;-76
2022/09/07 01:19:51;;;;;;;21.80;2.45;;;;;;;20.69;75.48;100616.28;5045620;28;20045;-76
2022/09/07 01:22:46;;;;;;;12.30;2.67;;;;;;;20.68;75.60;100616.59;5045216;28;20533;-74
2022/09/07 01:25:22;;;;;;;8.80;2.38;;;;;;;20.67;75.70;100600.75;5043107;28;21455;-74
2022/09/07 01:27:49;;;;;;;13.93;3.42;;;;;;;20.63;75.82;100611.97;5043505;28;20936;-75
2022/09/07 01:30:21;;;;;;;7.85;2.65;;;;;;;20.67;75.64;100606.44;5050205;28;20088;-75
2022/09/07 01:33:10;;;;;;;9.27;2.90;;;;;;;20.71;75.99;100618.75;5048866;28;20132;-75
2022/09/07 01:36:16;;;;;;;5.47;2.35;;;;;;;20.62;75.88;100603.84;5051334;28;20080;-76
2022/09/07 01:38:52;;;;;;;14.13;2.95;;;;;;;20.48;75.88;100553.84;5032036;28;20484;-75
2022/09/07 01:42:00;;;;;;;7.15;2.60;;;;;;;20.67;76.16;100575.22;5034051;28;20120;-76
2022/09/07 01:44:41;;;;;;;10.63;2.05;;;;;;;20.47;76.13;100559.84;5021612;28;20161;-76
2022/09/07 01:47:14;;;;;;;14.30;2.45;;;;;;;20.70;75.69;100589.53;5046074;28;20144;-76
2022/09/07 01:49:46;;;;;;;17.02;2.95;;;;;;;20.74;75.55;100589.69;5042313;28;20063;-75
2022/09/07 01:52:21;;;;;;;14.60;3.25;;;;;;;20.74;75.87;100593.34;5047881;28;20091;-75
2022/09/07 01:54:55;;;;;;;12.65;2.97;;;;;;;20.62;75.80;100567.78;5022031;28;20049;-75
2022/09/07 01:57:30;;;;;;;11.77;2.88;;;;;;;20.59;76.09;100565.63;5046782;28;20049;-76
2022/09/07 02:00:08;;;;;;;10.10;2.55;;;;;;;20.63;76.21;100571.44;5049538;28;20231;-76
2022/09/07 02:03:04;;;;;;;8.73;2.25;;;;;;;20.57;76.26;100551.78;5049522;28;20135;-76
2022/09/07 02:06:05;;;;;;;14.00;2.60;;;;;;;20.72;76.25;100580.69;5027186;28;20522;-75
2022/09/07 02:08:39;;;;;;;8.85;2.53;;;;;;;20.58;75.96;100556.28;5031817;28;20091;-76
2022/09/07 02:11:11;;;;;;;16.92;3.60;;;;;;;20.67;76.18;100578.06;5049638;28;20131;-76
2022/09/07 02:13:47;;;;;;;8.48;3.70;;;;;;;20.35;76.27;100521.75;5053024;28;20044;-76
2022/09/07 02:16:21;;;;;;;13.32;3.30;;;;;;;20.30;75.86;100501.28;5045634;28;20392;-76
2022/09/07 02:18:55;;;;;;;10.52;3.72;;;;;;;20.45;75.70;100525.34;5050121;28;20131;-76
2022/09/07 02:21:30;;;;;;;8.32;2.53;;;;;;;20.70;76.20;100552.66;5027220;28;20124;-76
2022/09/07 02:24:07;;;;;;;18.05;3.55;;;;;;;20.40;76.11;100492.34;5046047;28;20076;-75
2022/09/07 02:26:38;;;;;;;12.18;3.30;;;;;;;20.61;76.23;100532.03;5047379;28;20131;-76
2022/09/07 02:29:07;;;;;;;16.70;3.60;;;;;;;20.57;76.10;100508.38;5027453;28;20128;-75
2022/09/07 02:31:34;;;;;;;12.80;4.75;;;;;;;20.71;76.18;100527.94;5045513;28;20060;-75
2022/09/07 02:34:02;;;;;;;11.27;3.60;;;;;;;20.76;75.76;100533.41;5030415;28;20045;-76
2022/09/07 02:36:34;;;;;;;9.52;3.88;;;;;;;20.83;76.00;100528.00;5029545;28;20049;-77
2022/09/07 02:39:01;;;;;;;9.93;2.85;;;;;;;20.69;75.80;100518.97;5032463;28;20139;-76
2022/09/07 02:41:41;;;;;;;17.92;4.38;;;;;;;20.66;75.70;100502.63;5051484;28;20087;-75
2022/09/07 02:44:14;;;;;;;12.77;3.67;;;;;;;20.83;75.46;100545.84;5047560;28;20127;-75
2022/09/07 02:47:17;;;;;;;8.68;4.55;;;;;;;20.58;75.91;100547.78;5048970;28;20068;-76
2022/09/07 02:50:00;;;;;;;8.50;3.25;;;;;;;20.67;75.81;100546.84;5044133;28;20076;-75
2022/09/07 02:52:29;;;;;;;8.60;4.13;;;;;;;20.55;75.74;100537.13;5047767;28;20494;-75
2022/09/07 02:55:15;;;;;;;;;;;;;;;20.41;76.04;100547.91;5049169;28;20458;-77
2022/09/07 02:57:42;;;;;;;10.93;3.42;;;;;;;20.40;75.80;100551.91;5025736;28;20482;-76
2022/09/07 03:00:14;;;;;;;14.45;4.68;;;;;;;20.23;76.12;100543.53;5046413;28;20144;-75
2022/09/07 03:02:49;;;;;;;14.30;4.07;;;;;;;20.17;76.24;100537.28;5051120;28;20045;-76
2022/09/07 03:05:46;;;;;;;11.18;4.20;;;;;;;19.87;76.21;100493.97;5045910;28;20068;-75
2022/09/07 03:08:23;;;;;;;12.15;4.40;;;;;;;19.71;76.35;100484.41;5049263;28;20056;-76
2022/09/07 03:10:51;;;;;;;13.52;4.40;;;;;;;20.10;76.46;100534.97;5044427;28;20143;-75
2022/09/07 03:13:20;;;;;;;14.15;4.75;;;;;;;20.07;76.41;100515.00;5050308;28;20149;-75
2022/09/07 03:15:47;;;;;;;11.40;4.47;;;;;;;20.39;76.26;100533.22;5055946;28;20080;-76
2022/09/07 03:18:21;;;;;;;10.65;4.15;;;;;;;20.40;75.99;100526.38;5052548;28;20079;-76
2022/09/07 03:20:48;;;;;;;17.90;4.97;;;;;;;20.47;75.85;100560.69;5052143;28;20128;-76
2022/09/07 03:23:15;;;;;;;9.35;3.25;;;;;;;20.28;76.05;100497.97;5049876;28;20072;-76
2022/09/07 03:25:42;;;;;;;14.30;4.50;;;;;;;20.30;76.01;100501.28;5047834;28;20091;-75
2022/09/07 03:28:10;;;;;;;15.48;3.53;;;;;;;20.61;76.10;100531.22;5035805;28;20139;-75
2022/09/07 03:30:42;;;;;;;12.60;3.85;;;;;;;20.34;75.78;100488.06;5033805;28;20051;-75
2022/09/07 03:33:09;;;;;;;11.18;3.53;;;;;;;20.66;75.69;100531.84;5045162;28;20079;-75
2022/09/07 03:35:38;;;;;;;12.57;3.42;;;;;;;20.45;75.84;100494.97;5044812;28;20136;-75
2022/09/07 03:38:05;;;;;;;13.73;3.92;;;;;;;20.49;75.76;100498.75;5038429;28;20059;-76
2022/09/07 03:40:32;;;;;;;13.05;4.32;;;;;;;20.34;75.92;100485.22;5046400;28;20064;-76
2022/09/07 03:42:59;;;;;;;13.02;3.63;;;;;;;20.53;75.50;100504.59;5048439;28;20554;-77
2022/09/07 03:45:26;;;;;;;15.95;3.70;;;;;;;20.51;75.88;100496.44;5046696;28;20134;-76
2022/09/07 03:47:52;;;;;;;11.80;4.03;;;;;;;20.70;75.40;100517.78;5031072;28;20080;-76
2022/09/07 03:50:19;;;;;;;19.27;3.70;;;;;;;20.52;75.54;100481.06;5030129;28;20079;-74
2022/09/07 03:52:46;;;;;;;8.00;3.28;;;;;;;20.47;75.38;100471.91;5048678;28;20143;-75
2022/09/07 03:55:13;;;;;;;14.60;3.85;;;;;;;20.54;75.53;100497.75;5031735;28;20144;-75
2022/09/07 03:57:41;;;;;;;10.18;3.45;;;;;;;20.60;75.51;100504.84;5049402;28;20489;-76
2022/09/07 04:00:09;;;;;;;9.05;4.25;;;;;;;20.55;75.46;100511.59;5046953;28;20068;-75
2022/09/07 04:02:36;;;;;;;12.18;3.67;;;;;;;20.16;75.51;100472.38;5027304;28;20056;-75
2022/09/07 04:05:03;;;;;;;14.38;3.78;;;;;;;20.37;75.85;100515.72;5045188;28;20060;-76
2022/09/07 04:07:30;;;;;;;13.43;3.28;;;;;;;20.16;75.82;100493.06;5049986;28;20139;-76
2022/09/07 04:09:57;;;;;;;15.25;3.15;;;;;;;20.20;75.95;100496.03;5026310;28;20127;-76
2022/09/07 04:12:24;;;;;;;15.63;3.92;;;;;;;20.40;75.83;100517.03;5029879;28;20099;-76
2022/09/07 04:14:51;;;;;;;9.00;3.17;;;;;;;20.26;76.05;100483.31;5046824;28;20154;-75
2022/09/07 04:17:18;;;;;;;15.60;2.85;;;;;;;20.46;76.10;100504.31;5045834;28;20136;-76
2022/09/07 04:19:45;;;;;;;23.70;3.85;;;;;;;20.29;76.21;100471.25;5047125;28;20069;-76
2022/09/07 04:22:12;;;;;;;18.67;3.42;;;;;;;20.40;76.07;100478.16;5037043;28;20127;-76
2022/09/07 04:24:39;;;;;;;6.68;2.88;;;;;;;20.57;76.23;100499.88;5044925;28;20140;-76
2022/09/07 04:27:06;;;;;;;16.55;4.13;;;;;;;20.45;75.92;100491.31;5028149;28;20052;-75
2022/09/07 04:29:32;;;;;;;28.48;3.80;;;;;;;20.40;75.87;100477.34;5045111;28;20592;-75
2022/09/07 04:31:59;;;;;;;13.95;4.15;;;;;;;20.61;76.17;100495.16;5042174;28;20420;-74
2022/09/07 04:34:26;;;;;;;10.82;3.25;;;;;;;20.57;76.07;100480.03;5044934;28;20526;-75
2022/09/07 04:36:53;;;;;;;8.75;2.92;;;;;;;20.55;75.87;100477.53;5032886;28;20084;-75
2022/09/07 04:39:20;;;;;;;8.27;3.15;;;;;;;20.46;75.75;100488.13;5046139;28;20083;-76
2022/09/07 04:41:47;;;;;;;13.23;3.63;;;;;;;20.34;75.88;100471.88;5046554;28;20096;-76
2022/09/07 04:44:13;;;;;;;11.80;3.38;;;;;;;20.53;75.56;100488.41;5045464;28;20084;-75
2022/09/07 04:46:42;;;;;;;15.20;3.73;;;;;;;20.48;75.77;100480.09;5045380;28;20418;-74
2022/09/07 04:49:10;;;;;;;11.50;3.30;;;;;;;20.40;75.70;100472.47;5033091;28;20136;-74
2022/09/07 04:51:38;;;;;;;9.10;3.00;;;;;;;20.52;75.81;100497.28;5054593;28;20076;-75
2022/09/07 04:54:06;;;;;;;10.68;3.00;;;;;;;20.43;76.09;100503.00;5058816;28;22601;-75
2022/09/07 04:56:33;;;;;;;7.47;3.17;;;;;;;20.45;75.83;100506.31;5058894;28;20099;-76
2022/09/07 04:59:01;;;;;;;12.45;2.75;;;;;;;20.42;75.72;100475.00;5065090;28;20079;-75
2022/09/07 05:01:28;;;;;;;10.93;3.35;;;;;;;20.50;75.90;100488.25;5056290;28;20407;-75
2022/09/07 05:03:55;;;;;;;9.07;2.92;;;;;;;20.54;75.81;100501.41;5036196;28;20885;-75
2022/09/07 05:06:22;;;;;;;14.85;3.35;;;;;;;20.56;75.91;100510.41;5046203;28;20144;-76
2022/09/07 05:08:52;;;;;;;11.40;3.78;;;;;;;20.58;75.84;100502.38;5049697;28;20135;-75
2022/09/07 05:11:22;;;;;;;17.35;3.50;;;;;;;20.52;75.77;100486.75;5048084;28;20143;-74
2022/09/07 05:13:59;;;;;;;11.20;3.55;;;;;;;20.58;75.93;100498.69;5050598;28;20092;-75
2022/09/07 05:16:27;;;;;;;6.88;2.58;;;;;;;20.65;75.94;100489.59;5050885;28;20084;-75
2022/09/07 05:19:00;;;;;;;13.40;3.22;;;;;;;20.62;76.00;100493.19;5034777;28;20052;-75
2022/09/07 05:21:31;;;;;;;10.27;3.65;;;;;;;20.58;75.98;100499.53;5045371;28;20049;-76
2022/09/07 05:23:59;;;;;;;7.13;2.67;;;;;;;20.27;76.22;100456.59;5047112;28;20080;-76
2022/09/07 05:26:29;;;;;;;15.07;4.20;;;;;;;20.57;76.23;100512.06;5048190;28;20511;-75
2022/09/07 05:28:57;;;;;;;10.23;2.85;;;;;;;20.65;76.03;100523.66;5031527;28;20514;-75
2022/09/07 05:31:44;;;;;;;15.27;3.78;;;;;;;20.50;76.12;100510.94;5030982;28;20041;-75
2022/09/07 05:34:12;;;;;;;11.68;2.38;;;;;;;20.53;75.91;100513.09;5051181;28;20143;-75
2022/09/07 05:36:55;;;;;;;15.23;3.35;;;;;;;20.55;76.15;100514.44;5058171;28;20040;-75
2022/09/07 05:39:23;;;;;;;11.23;3.20;;;;;;;20.52;75.90;100520.78;5047662;28;20103;-75
2022/09/07 05:41:50;;;;;;;11.77;3.63;;;;;;;20.43;75.92;100511.50;5045810;28;20448;-76
2022/09/07 05:44:17;;;;;;;12.45;3.75;;;;;;;20.58;76.36;100527.91;5044253;28;20582;-76
2022/09/07 05:47:04;;;;;;;14.07;3.67;;;;;;;20.59;75.96;100525.91;5033868;28;20504;-75
2022/09/07 05:49:31;;;;;;;11.48;4.22;;;;;;;20.30;76.20;100473.75;5029000;28;20544;-74
2022/09/07 05:51:58;;;;;;;11.82;3.25;;;;;;;20.67;76.31;100509.97;5046085;28;20136;-74
2022/09/07 05:54:25;;;;;;;14.43;3.65;;;;;;;20.74;76.28;100515.91;5048612;28;20168;-74
2022/09/07 05:56:52;;;;;;;19.27;4.60;;;;;;;20.77;75.83;100509.53;5026433;28;20053;-73
2022/09/07 05:59:18;;;;;;;12.07;4.05;;;;;;;20.79;75.83;100498.66;5045840;28;20520;-74
2022/09/07 06:01:45;;;;;;;13.57;4.35;;;;;;;20.59;75.86;100455.81;5051134;28;20137;-74
2022/09/07 06:04:12;;;;;;;14.40;3.35;;;;;;;20.79;75.99;100478.78;5051262;28;20119;-74
2022/09/07 06:06:39;;;;;;;10.82;3.65;;;;;;;20.68;76.03;100455.69;5044813;28;20511;-72
2022/09/07 06:09:06;;;;;;;11.23;4.40;;;;;;;20.58;75.51;100468.34;5047931;28;20423;-74
2022/09/07 06:11:33;;;;;;;15.65;3.85;;;;;;;20.48;75.64;100465.91;5045216;28;20041;-78
2022/09/07 06:14:00;;;;;;;12.70;4.60;;;;;;;20.46;75.72;100485.28;5044217;28;20131;-74
2022/09/07 06:16:27;;;;;;;10.20;3.95;;;;;;;20.49;75.52;100484.59;5051200;28;20069;-74
2022/09/07 06:18:54;;;;;;;10.45;4.25;;;;;;;20.21;75.53;100447.50;5046766;28;20056;-77
2022/09/07 06:21:22;;;;;;;11.13;3.72;;;;;;;20.39;75.88;100470.84;5028964;28;20053;-80
2022/09/07 06:23:50;;;;;;;13.55;4.38;;;;;;;20.39;75.67;100487.84;5038252;28;20054;-80
2022/09/07 06:26:18;;;;;;;13.93;4.70;;;;;;;20.27;75.83;100488.66;5042289;28;20140;-81
2022/09/07 06:28:47;;;;;;;14.57;4.35;;;;;;;20.40;75.64;100494.34;5044420;28;20093;-77
2022/09/07 06:31:22;;;;;;;12.13;3.55;;;;;;;20.28;75.84;100486.63;5026591;28;20099;-74
2022/09/07 06:33:50;;;;;;;9.10;3.92;;;;;;;20.16;75.67;100475.22;5050005;28;20053;-76
2022/09/07 06:36:19;;;;;;;10.38;4.15;;;;;;;20.23;75.90;100484.00;5042876;28;20139;-73
2022/09/07 06:38:48;;;;;;;17.33;5.67;;;;;;;20.13;75.85;100477.56;5044136;28;20048;-74
2022/09/07 06:41:22;;;;;;;14.30;4.75;;;;;;;20.27;75.89;100499.13;5045056;28;20530;-74
2022/09/07 06:44:10;;;;;;;11.63;4.65;;;;;;;20.33;75.81;100487.22;5042671;28;20045;-73
2022/09/07 06:46:37;;;;;;;9.80;4.70;;;;;;;20.43;75.81;100505.81;5051283;28;20103;-72
2022/09/07 06:49:24;;;;;;;12.68;4.53;;;;;;;20.45;75.72;100514.81;5046151;28;20491;-72
2022/09/07 06:51:51;;;;;;;14.93;4.78;;;;;;;20.42;75.80;100509.84;5048270;28;20148;-79
2022/09/07 06:54:18;;;;;;;11.57;4.57;;;;;;;20.30;75.92;100490.75;5051792;28;20419;-74
2022/09/07 06:57:07;;;;;;;18.98;4.78;;;;;;;20.24;76.23;100486.50;5039401;28;20415;-74
2022/09/07 06:59:36;;;;;;;14.32;4.30;;;;;;;20.40;76.26;100508.53;5038485;28;20140;-74
2022/09/07 07:02:04;;;;;;;10.57;4.15;;;;;;;20.52;76.41;100525.66;5040803;28;20073;-74
2022/09/07 07:04:31;;;;;;;9.80;3.90;;;;;;;20.43;76.21;100517.16;5047359;28;20151;-74
2022/09/07 07:07:08;;;;;;;12.98;4.15;;;;;;;20.51;76.35;100513.47;5050437;28;20061;-74
2022/09/07 07:09:35;;;;;;;14.25;4.80;;;;;;;20.33;76.07;100483.56;5047199;28;20140;-75
2022/09/07 07:12:02;;;;;;;18.33;5.40;;;;;;;20.52;76.22;100515.13;5043090;28;20085;-75
2022/09/07 07:14:29;;;;;;;14.38;4.38;;;;;;;20.19;76.13;100460.34;5031506;28;20088;-74
2022/09/07 07:17:01;;;;;;;16.70;4.57;;;;;;;20.53;76.19;100521.63;5044857;28;20045;-71
2022/09/07 07:19:28;;;;;;;13.27;4.90;;;;;;;20.70;76.26;100526.28;5040749;28;20110;-77
2022/09/07 07:21:54;;;;;;;12.48;4.13;;;;;;;20.68;76.20;100520.94;5026750;28;20131;-76
2022/09/07 07:24:41;;;;;;;8.80;4.38;;;;;;;20.59;76.16;100512.53;5040797;28;20059;-81
2022/09/07 07:27:08;;;;;;;16.88;4.65;;;;;;;20.61;75.99;100500.84;5028915;28;20122;-75
2022/09/07 07:29:35;;;;;;;10.73;4.07;;;;;;;20.71;76.14;100500.38;5043987;28;20049;-77
2022/09/07 07:32:03;;;;;;;10.70;3.88;;;;;;;20.77;75.86;100512.34;5044000;28;20127;-77
2022/09/07 07:34:30;;;;;;;11.52;4.93;;;;;;;20.88;75.96;100524.91;5042725;28;20041;-78
2022/09/07 07:36:56;;;;;;;6.35;3.33;;;;;;;20.91;75.96;100509.19;5047398;28;20155;-77
2022/09/07 07:39:23;;;;;;;12.98;4.22;;;;;;;20.68;75.69;100477.56;5044053;28;20392;-78
2022/09/07 07:42:11;;;;;;;8.45;3.92;;;;;;;21.13;75.65;100527.78;5032369;28;20103;-79
2022/09/07 07:44:38;;;;;;;10.07;3.05;;;;;;;21.06;75.64;100517.06;5042616;28;20049;-76
2022/09/07 07:47:05;;;;;;;11.93;3.38;;;;;;;21.11;75.66;100519.66;5042303;28;20063;-79
2022/09/07 07:49:31;;;;;;;13.88;3.92;;;;;;;20.88;75.33;100481.50;5043301;28;20072;-78
2022/09/07 07:51:58;;;;;;;11.27;3.38;;;;;;;21.25;75.48;100525.00;5045421;28;20052;-80
2022/09/07 07:54:45;;;;;;;13.35;3.00;;;;;;;21.40;75.64;100506.44;5042988;28;20248;-81
2022/09/07 07:57:13;;;;;;;11.52;3.35;;;;;;;22.03;75.34;100525.94;5042529;28;20049;-79
2022/09/07 07:59:40;;;;;;;9.57;3.15;;;;;;;22.28;74.66;100516.16;5027148;28;20057;-77
2022/09/07 08:02:13;;;;;;;8.00;3.00;;;;;;;22.52;74.33;100514.41;5041810;28;20064;-78
2022/09/07 08:04:40;;;;;;;7.10;2.60;;;;;;;22.69;74.30;100519.78;5026695;28;20407;-77
2022/09/07 08:07:09;;;;;;;11.27;2.92;;;;;;;22.64;73.80;100494.44;5048433;28;20084;-74
2022/09/07 08:09:41;;;;;;;12.93;2.67;;;;;;;22.72;73.95;100496.28;5048124;28;20049;-77
2022/09/07 08:12:11;;;;;;;8.15;2.83;;;;;;;22.81;73.61;100507.50;5026467;28;20051;-79
2022/09/07 08:14:41;;;;;;;11.60;4.05;;;;;;;22.52;73.28;100478.22;5025701;28;20063;-78
2022/09/07 08:17:11;;;;;;;9.82;2.25;;;;;;;22.57;73.35;100494.25;5045594;28;20407;-80
2022/09/07 08:19:38;;;;;;;;;;;;;;;22.54;72.75;100514.88;5048389;28;20052;-76
2022/09/07 08:22:06;;;;;;;8.13;2.50;;;;;;;22.46;72.56;100506.16;5045241;28;19928;-75
2022/09/07 08:24:33;;;;;;;7.18;2.63;;;;;;;22.50;72.34;100489.16;5043275;28;20056;-76
2022/09/07 08:27:00;;;;;;;6.70;2.20;;;;;;;22.57;72.23;100495.06;5041869;28;20053;-81
2022/09/07 08:29:28;;;;;;;11.18;2.65;;;;;;;22.66;72.29;100509.94;5041650;28;20068;-74
2022/09/07 08:32:00;;;;;;;15.15;3.75;;;;;;;22.44;71.72;100494.28;5043559;28;20048;-75
2022/09/07 08:34:27;;;;;;;21.73;2.83;;;;;;;22.60;71.80;100510.59;5048748;28;20055;-76
2022/09/07 08:36:54;;;;;;;10.75;2.97;;;;;;;22.63;71.53;100499.31;5044879;28;20140;-78
2022/09/07 08:39:21;;;;;;;7.00;2.50;;;;;;;22.55;71.61;100491.75;5042875;28;20068;-78
2022/09/07 08:41:50;;;;;;;7.35;2.40;;;;;;;22.63;71.41;100529.75;5043904;28;20052;-76
2022/09/07 08:44:17;;;;;;;5.03;2.22;;;;;;;22.50;71.63;100533.88;5046844;28;20057;-81
2022/09/07 08:46:57;;;;;;;11.27;2.15;;;;;;;22.16;71.85;100505.66;5046630;28;20045;-77
2022/09/07 08:49:48;;;;;;;8.82;2.85;;;;;;;22.27;71.77;100519.38;5026929;28;20136;-79
2022/09/07 08:52:26;;;;;;;8.73;3.20;;;;;;;22.08;71.86;100488.69;5044632;28;20064;-81
2022/09/07 08:55:08;;;;;;;9.13;3.33;;;;;;;22.31;72.26;100523.97;5027006;28;20060;-78
2022/09/07 08:57:40;;;;;;;8.90;2.70;;;;;;;22.59;71.43;100520.28;5043979;28;20364;-76
2022/09/07 09:00:15;;;;;;;12.63;2.53;;;;;;;22.90;71.19;100543.13;5041439;28;20049;-80
2022/09/07 09:02:42;;;;;;;7.43;2.42;;;;;;;22.97;71.00;100528.31;5042211;28;20037;-78
2022/09/07 09:05:34;;;;;;;7.72;2.72;;;;;;;23.18;71.22;100531.75;5041492;28;20518;-78
2022/09/07 09:08:04;;;;;;;12.68;3.42;;;;;;;23.22;70.67;100553.81;5041060;28;20053;-76
2022/09/07 09:10:49;;;;;;;9.23;2.95;;;;;;;23.22;71.15;100548.09;5044818;28;20395;-76
2022/09/07 09:13:46;;;;;;;10.77;2.35;;;;;;;23.21;70.70;100552.94;5042649;28;20139;-76
2022/09/07 09:16:38;;;;;;;6.00;2.65;;;;;;;23.11;71.21;100539.25;5025355;28;20107;-77
2022/09/07 09:19:26;;;;;;;6.95;2.40;;;;;;;23.37;70.85;100568.03;5046407;28;20061;-81
2022/09/07 09:22:07;;;;;;;9.98;2.88;;;;;;;23.34;70.25;100548.00;5066109;28;20116;-78
2022/09/07 09:24:37;;;;;;;13.32;3.00;;;;;;;23.19;70.17;100543.97;5060027;28;20068;-79
2022/09/07 09:27:04;;;;;;;10.45;3.20;;;;;;;23.23;70.34;100544.06;5067051;28;20059;-77
2022/09/07 09:29:32;;;;;;;9.68;3.45;;;;;;;23.50;69.51;100539.47;5065766;28;20103;-77
2022/09/07 09:31:59;;;;;;;8.35;2.65;;;;;;;24.00;69.70;100558.66;5052115;28;20064;-74
2022/09/07 09:34:25;;;;;;;9.43;2.97;;;;;;;24.69;69.48;100558.97;5043092;28;20057;-75
2022/09/07 09:36:56;;;;;;;7.10;2.28;;;;;;;24.75;69.02;100528.91;5044283;28;20048;-76
2022/09/07 09:39:27;;;;;;;8.48;2.97;;;;;;;24.77;69.25;100531.38;5043880;28;20056;-75
2022/09/07 09:41:57;;;;;;;7.97;3.10;;;;;;;25.10;69.29;100562.22;5044521;28;20056;-74
2022/09/07 09:44:32;;;;;;;15.18;3.38;;;;;;;25.18;68.55;100538.31;5028797;28;20136;-75
2022/09/07 09:47:01;;;;;;;7.90;2.72;;;;;;;25.40;67.78;100556.69;5044716;28;20057;-74
2022/09/07 09:49:47;;;;;;;7.65;3.00;;;;;;;25.36;68.16;100552.09;5041423;28;20466;-78
2022/09/07 09:52:18;;;;;;;7.45;2.72;;;;;;;25.72;67.22;100568.66;5045213;28;20048;-76
2022/09/07 09:55:06;;;;;;;6.07;2.63;;;;;;;25.51;67.41;100545.44;5045263;28;20063;-76
2022/09/07 09:58:00;;;;;;;10.65;3.00;;;;;;;25.44;67.56;100553.88;5045328;28;20048;-75
2022/09/07 10:00:55;;;;;;;6.82;3.08;;;;;;;25.37;67.40;100579.47;5028099;28;20079;-75
2022/09/07 10:03:44;;;;;;;13.70;2.75;;;;;;;25.19;66.39;100579.13;5042071;28;20050;-77
2022/09/07 10:06:31;;;;;;;11.10;2.90;;;;;;;25.01;66.29;100575.91;5033004;28;20396;-77
2022/09/07 10:09:00;;;;;;;7.97;2.90;;;;;;;25.10;66.16;100559.34;5046584;28;20131;-78
2022/09/07 10:11:46;;;;;;;16.55;2.95;;;;;;;25.05;66.03;100588.22;5047924;28;20083;-78
2022/09/07 10:14:42;;;;;;;7.57;3.08;;;;;;;24.99;65.20;100595.44;5048456;28;20060;-78
2022/09/07 10:17:31;;;;;;;8.95;3.25;;;;;;;24.86;64.37;100579.69;5049454;28;20052;-76
2022/09/07 10:20:17;;;;;;;6.63;2.70;;;;;;;24.98;63.87;100582.38;5045414;28;20053;-78
2022/09/07 10:22:56;;;;;;;6.85;3.95;;;;;;;25.06;62.95;100576.44;5038671;28;20064;-76
2022/09/07 10:25:44;;;;;;;7.45;2.10;;;;;;;24.94;62.82;100584.34;5048619;28;20401;-75
2022/09/07 10:28:14;;;;;;;9.57;2.13;;;;;;;25.01;61.62;100587.34;5033420;28;20053;-79
2022/09/07 10:30:59;;;;;;;3.72;2.45;;;;;;;25.08;61.30;100603.81;5049903;28;20053;-78
2022/09/07 10:33:47;;;;;;;5.10;2.40;;;;;;;25.07;60.71;100580.13;5048559;28;20053;-78
2022/09/07 10:36:59;;;;;;;7.00;1.85;;;;;;;25.01;60.54;100558.78;5041344;28;20052;-76
2022/09/07 10:39:58;;;;;;;6.13;1.98;;;;;;;25.05;60.15;100579.66;5040138;28;20048;-76
2022/09/07 10:42:38;;;;;;;7.28;2.38;;;;;;;24.88;59.57;100557.28;5033486;28;20060;-77
2022/09/07 10:45:43;;;;;;;6.45;1.40;;;;;;;25.00;59.31;100586.50;5041632;28;20049;-79
2022/09/07 10:48:38;;;;;;;7.60;2.15;;;;;;;25.14;59.30;100591.72;4960292;28;20059;-74
2022/09/07 10:51:24;;;;;;;4.13;1.60;;;;;;;25.53;59.28;100578.13;4964005;28;20570;-73
2022/09/07 10:54:29;;;;;;;9.48;1.92;;;;;;;26.14;58.19;100587.72;5025986;28;20054;-75
2022/09/07 10:57:16;;;;;;;7.93;1.45;;;;;;;26.35;57.08;100570.03;5043832;28;20044;-72
2022/09/07 11:00:07;;;;;;;3.53;1.50;;;;;;;26.56;56.87;100586.72;5041490;28;20057;-75
2022/09/07 11:03:00;;;;;;;4.63;1.08;;;;;;;26.41;56.14;100584.84;5043189;28;20049;-75
2022/09/07 11:05:59;;;;;;;5.15;1.10;;;;;;;26.07;56.14;100579.03;5042097;28;20103;-75
2022/09/07 11:08:36;;;;;;;8.95;1.45;;;;;;;26.01;55.75;100589.16;5042033;28;20055;-74
2022/09/07 11:11:30;;;;;;;4.10;1.52;;;;;;;25.87;55.11;100571.78;5041425;28;20053;-73
2022/09/07 11:14:22;;;;;;;5.68;1.45;;;;;;;25.95;55.60;100573.56;5044036;28;20045;-74
2022/09/07 11:16:54;;;;;;;7.63;1.70;;;;;;;26.01;55.54;100577.72;5042024;28;20305;-74
2022/09/07 11:19:30;;;;;;;1.85;1.10;;;;;;;25.85;54.70;100537.84;5047353;28;20060;-72
2022/09/07 11:22:18;;;;;;;10.00;2.17;;;;;;;26.53;55.03;100586.66;5044332;28;20152;-73
2022/09/07 11:24:51;;;;;;;2.97;1.10;;;;;;;26.92;53.03;100584.31;5040659;28;20057;-74
2022/09/07 11:27:46;;;;;;;5.35;2.15;;;;;;;26.95;52.76;100574.94;5030472;28;20143;-75
2022/09/07 11:30:18;;;;;;;3.75;1.33;;;;;;;26.93;52.82;100578.16;5046944;28;20049;-76
2022/09/07 11:33:24;;;;;;;7.72;4.00;;;;;;;26.32;53.41;100535.63;5047016;28;20052;-75
2022/09/07 11:36:08;;;;;;;5.57;1.63;;;;;;;26.36;53.11;100563.13;5034793;28;20060;-74
2022/09/07 11:38:43;;;;;;;7.05;1.58;;;;;;;26.08;52.34;100543.47;5047536;28;20053;-76
2022/09/07 11:41:19;;;;;;;4.53;1.88;;;;;;;26.09;52.05;100559.47;5041929;28;20465;-75
2022/09/07 11:44:12;;;;;;;11.13;2.22;;;;;;;26.09;51.81;100545.16;5045964;28;20049;-74
2022/09/07 11:47:02;;;;;;;5.50;2.05;;;;;;;26.32;51.39;100524.19;5042680;28;20064;-75
2022/09/07 11:49:29;;;;;;;2.83;1.40;;;;;;;27.08;50.67;100521.84;5040104;28;20048;-73
2022/09/07 11:51:56;;;;;;;4.65;1.70;;;;;;;27.54;49.24;100567.34;5045233;28;20506;-75
2022/09/07 11:54:40;;;;;;;6.78;1.52;;;;;;;27.65;48.50;100570.31;5039243;28;20064;-74